Effective Sunday, March 17, 2024, the National Weather Service National Data Buoy Center will discontinue its Dial-A-Buoy Interactive Voice Response system. For more information, see Service Change Notice 24-06 (PDF).

Station WCRP1 - Walnut Creek Marina, PA Image indicating link to RSS feed of recent meteorological observations for station WCRP1


Conditions at WCRP1 as of
(9:00 pm EST on 02/23/2024)
0200 GMT on 02/24/2024:
     

Click on the graph icon in the table below to see a time series plot of the last five days of that observation.

5-day plot - Wind Direction Wind Direction (WDIR):NNW ( 340 deg true )
5-day plot - Wind Speed Wind Speed (WSPD): 14.0 kts
5-day plot - Wind Gust Wind Gust (GST): 18.1 kts
5-day plot - Air Temperature Air Temperature (ATMP): 35.2 °F
5-day plot - Wind Chill Wind Chill (CHILL): 25.3 °F
5-day plot - Wind Speed at 10 Meters Wind Speed at 10 meters (WSPD10M): 13.6 kts
5-day plot - Wind Speed at 20 Meters Wind Speed at 20 meters (WSPD20M): 15.5 kts
5-day plot -  Wind Speed, Wind Gust and Atmospheric Pressure Combined plot of Wind Speed, Gust, and Air Pressure
Previous observations
TIME
(EST)
5-day plot - Wind Direction
WDIR
 
5-day plot - Wind Speed
WSPD
kts
5-day plot - Wind Gust
GST
kts
5-day plot - Wave Height
WVHT
ft
5-day plot - Dominant Wave Period
DPD
sec
5-day plot - Average Wave Period
APD
sec
5-day plot - Mean Wave Direction
MWD
 
5-day plot - Atmospheric Pressure
PRES
in
5-day plot - Pressure Tendency
PTDY
in
5-day plot - Air Temperature
ATMP
°F
5-day plot - Water Temperature
WTMP
°F
5-day plot - Dew Point
DEWP
°F
5-day plot - Salinity
SAL
psu
5-day plot - Visibility
VIS
nmi
5-day plot - Tide (above MLLW)
TIDE
ft
2024-02-23 08:50 pmNNW 15.0 19.0------ 35.4-----
2024-02-23 08:40 pmNNW 15.9 20.0------ 36.0-----
2024-02-23 08:30 pmNNW 15.0 18.1------ 36.3-----
2024-02-23 08:20 pmNNW 15.0 19.0------ 36.7-----
2024-02-23 08:10 pmNNW 13.0 15.0------ 36.9-----
2024-02-23 08:00 pm NW 7.0 8.0------ 37.0-----
2024-02-23 07:50 pm NW 5.1 6.0------ 37.2-----
2024-02-23 07:40 pm W 2.9 5.1------ 37.2-----
2024-02-23 07:30 pmWNW 2.9 4.1------ 37.2-----
2024-02-23 07:20 pmWNW 2.9 4.1------ 37.4-----
2024-02-23 07:10 pmWNW 1.9 2.9------ 37.8-----
2024-02-23 07:00 pm W 1.9 4.1------ 37.6-----
2024-02-23 06:50 pm W 4.1 6.0------ 37.8-----
2024-02-23 06:40 pmWSW 2.9 4.1------ 37.6-----
2024-02-23 06:30 pm SW 1.9 4.1------ 37.6-----
2024-02-23 06:20 pm SW 2.9 7.0------ 37.8-----
2024-02-23 06:10 pm SW 2.9 6.0------ 37.8-----
2024-02-23 06:00 pm SW 1.9 6.0------ 37.4-----
2024-02-23 05:50 pmSSW 2.9------- 37.0-----
2024-02-23 05:40 pmSSW 2.9 7.0------ 36.9-----
2024-02-23 05:30 pmSSW 4.1 8.0------ 36.5-----
2024-02-23 05:20 pmSSW 2.9 6.0------ 36.3-----
2024-02-23 05:10 pm SW 4.1 6.0------ 36.3-----
2024-02-23 05:00 pmSSW 5.1 8.9------ 36.3-----
2024-02-23 04:50 pm SW 4.1------- 36.5-----
2024-02-23 04:40 pmSSW 4.1 7.0------ 36.5-----
2024-02-23 04:30 pm SW 4.1 6.0------ 36.7-----
2024-02-23 04:20 pm SW 4.1 6.0------ 36.7-----
2024-02-23 04:10 pm SW 2.9 11.1------ 36.5-----
2024-02-23 04:00 pmWSW 2.9 11.1------ 36.5-----
2024-02-23 03:50 pmWSW 7.0 8.9------ 37.6-----
2024-02-23 03:40 pm S 2.9 6.0------ 37.8-----
2024-02-23 03:30 pm S 5.1 9.9------ 36.0-----
2024-02-23 03:20 pmSSW 6.0 9.9------ 36.0-----
2024-02-23 03:10 pm SW 4.1 7.0------ 36.1-----
2024-02-23 03:00 pmWSW 5.1 8.0------ 36.7-----
2024-02-23 02:50 pmWSW 8.9 14.0------ 36.5-----
2024-02-23 02:40 pmWSW 12.0 14.0------ 36.5-----
2024-02-23 02:30 pmWSW 5.1 9.9------ 37.2-----
2024-02-23 02:20 pm SW 4.1 8.9------ 37.2-----
2024-02-23 02:10 pmSSW 4.1 7.0------ 37.2-----
2024-02-23 02:00 pmSSW 6.0 9.9------ 38.3-----
2024-02-23 01:50 pmSSW 4.1 8.9------ 38.7-----
2024-02-23 01:40 pmSSW 4.1 8.0------ 38.7-----
2024-02-23 01:30 pmSSW 6.0 8.0------ 37.9-----
2024-02-23 01:20 pm SW 4.1 8.0------ 37.2-----
2024-02-23 01:10 pmWSW 5.1 11.1------ 36.9-----
2024-02-23 01:00 pmWSW 9.9 12.0------ 36.7-----
2024-02-23 12:50 pmWSW 8.0 15.0------ 37.2-----
2024-02-23 12:40 pmWSW 8.9 13.0------ 39.9-----
2024-02-23 12:30 pm SW 2.9 5.1------ 41.2-----
2024-02-23 12:20 pm SW 1.9 5.1------------
2024-02-23 12:10 pm SW 1.9 6.0------------
2024-02-23 11:50 am SW 2.9 8.0------ 39.7-----
2024-02-23 11:40 amWSW 6.0------- 39.0-----
2024-02-23 11:30 am W 7.0 8.9------ 39.0-----
2024-02-23 11:20 amWSW 2.9 6.0------ 38.8-----
2024-02-23 11:10 am SW 1.9 8.0------ 39.0-----
2024-02-23 11:00 am W 8.0 8.0------ 41.2-----
2024-02-23 10:50 amWSW 4.1 6.0------ 43.9-----
2024-02-23 10:40 amSSW 4.1 9.9------ 43.7-----
2024-02-23 10:30 amSSW 4.1 13.0------ 43.3-----
2024-02-23 10:20 am S 6.0 12.0------ 42.4-----
2024-02-23 10:10 amSSE-------- 42.4-----
2024-02-23 10:00 am S 6.0 11.1------ 41.4-----
2024-02-23 09:50 am S 4.1 7.0------ 41.0-----
2024-02-23 09:40 am S 4.1 7.0------------
2024-02-23 09:30 am S 4.1 6.0------------
2024-02-23 09:20 am S 1.9 7.0------ 40.3-----
2024-02-23 09:10 am S 1.9 5.1------ 40.1-----
2024-02-23 09:00 am S 1.9 7.0------ 39.9-----
2024-02-23 08:50 amSSW-------- 39.7-----
2024-02-23 08:40 am S 2.9 6.0------ 39.6-----
2024-02-23 08:30 am S 2.9 6.0------ 39.4-----
2024-02-23 08:20 am S 4.1 5.1------ 39.4-----
2024-02-23 08:10 am S 1.9 5.1------ 39.4-----
2024-02-23 08:00 am S 2.9 6.0------ 39.2-----
2024-02-23 07:50 am S 1.9 5.1------ 39.2-----
2024-02-23 07:40 am S 2.9 6.0------ 39.2-----
2024-02-23 07:30 am S-------- 39.0-----
2024-02-23 07:20 am S 2.9 6.0------ 39.0-----
2024-02-23 07:10 am S 4.1 6.0------ 38.8-----
2024-02-23 07:00 am S 1.9 5.1------ 38.8-----
2024-02-23 06:50 amSSE 2.9 6.0------ 38.8-----
2024-02-23 06:40 amSSW 1.9 6.0------ 38.7-----
2024-02-23 06:30 amSSW 4.1 5.1------ 38.7-----
2024-02-23 06:20 am S 2.9 4.1------ 38.7-----
2024-02-23 06:10 am S 1.9 5.1------ 38.5-----
2024-02-23 06:00 amSSE 4.1 5.1------ 38.3-----
2024-02-23 05:50 am S 4.1 5.1------ 38.1-----
2024-02-23 05:40 amSSE 1.9 4.1------ 37.9-----
2024-02-23 05:30 am S 2.9 5.1------ 37.8-----
2024-02-23 05:20 am S 2.9 4.1------ 37.4-----
2024-02-23 05:10 amSSE 2.9 4.1------ 37.0-----
2024-02-23 05:00 am S 1.0 1.9------ 36.5-----
2024-02-23 04:50 am S 1.0 2.9------ 36.0-----
2024-02-23 04:40 am SW 1.9 1.9------ 35.8-----
2024-02-23 04:30 am SW 1.0 1.9------ 35.8-----
2024-02-23 04:20 am- 0.0 1.9------ 36.1-----
2024-02-23 04:10 am SW 1.0 2.9------ 36.1-----
2024-02-23 04:00 am S 2.9 4.1------ 35.8-----
2024-02-23 03:50 am S 2.9 5.1------ 35.8-----
2024-02-23 03:40 amSSW 2.9 4.1------ 35.8-----
2024-02-23 03:30 amSSW 2.9 4.1------ 35.6-----
2024-02-23 03:20 amSSW 1.9 4.1------ 35.8-----
2024-02-23 03:10 amSSW 2.9 4.1------ 36.0-----
2024-02-23 03:00 amSSW 1.9 2.9------ 36.0-----
2024-02-23 02:50 am SW 1.9 5.1------ 35.8-----
2024-02-23 02:40 amWSW 2.9 5.1------ 36.0-----
2024-02-23 02:30 am SW 1.9 5.1------ 36.5-----
2024-02-23 02:20 amWSW 2.9 4.1------ 36.7-----
2024-02-23 02:10 am SW 1.0 5.1------ 36.7-----
2024-02-23 02:00 amSSW 1.9 4.1------ 36.9-----
2024-02-23 01:50 am SW 1.9 4.1------ 37.0-----
2024-02-23 01:40 amSSW 1.9------- 37.2-----
2024-02-23 01:30 am SW 2.9 5.1------ 37.2-----
2024-02-23 01:20 am SW 1.9 2.9------ 39.2-----
2024-02-23 01:10 am SW 1.9 1.9------ 38.7-----
2024-02-23 01:00 am SW 1.0 1.9------ 39.2-----
2024-02-23 12:50 am- 0.0 1.0------------
2024-02-23 12:40 am S 1.0 1.9------------
2024-02-23 12:30 amSSE 1.0 1.9------------
2024-02-23 12:20 amSSE 1.0 1.9------ 40.1-----
2024-02-23 12:10 am- 0.0 1.0------ 39.9-----
2024-02-23 12:00 am- 0.0 1.0------ 39.9-----
2024-02-22 11:50 pm- 0.0 1.0------ 39.9-----
2024-02-22 11:40 pm- 0.0 0.0------ 39.7-----
2024-02-22 11:30 pm- 0.0 0.0------ 39.6-----
2024-02-22 11:20 pm- 0.0 0.0------ 39.6-----
2024-02-22 11:10 pm- 0.0 1.0------ 39.4-----
2024-02-22 11:00 pm- 0.0 1.0------ 39.0-----
2024-02-22 10:50 pm- 0.0 1.9------ 38.7-----
2024-02-22 10:40 pmWSW 2.9 2.9------ 38.3-----
2024-02-22 10:30 pm W 1.9 1.9------ 40.1-----
2024-02-22 10:20 pm- 0.0 0.0------ 41.2-----
2024-02-22 10:10 pm- 0.0 1.0------------
2024-02-22 10:00 pm- 0.0 1.0------------
2024-02-22 09:50 pm- 0.0 0.0------ 39.4-----